Time;durP1;ratioP1;P1;durP2;ratioP2;P2;SDS_P1;SDS_P2;PMS_P1;PMS_P2;Temp;Humidity;BMP_temperature;BMP_pressure;BME280_temperature;BME280_humidity;BME280_pressure;Samples;Min_cycle;Max_cycle;Signal;HPM_P1;HPM_P2
2023/04/08 00:00:43;;;;;;;0.30;0.30;;;;;;;18.70;44.27;101786.34;5099632;28;20440;-48
2023/04/08 00:03:09;;;;;;;0.30;0.30;;;;;;;18.70;44.05;101785.50;5114416;28;20479;-47
2023/04/08 00:05:35;;;;;;;0.30;0.30;;;;;;;18.70;44.09;101782.75;5114238;28;20307;-47
2023/04/08 00:08:01;;;;;;;0.20;0.20;;;;;;;18.70;44.24;101786.34;5114947;28;20055;-49
2023/04/08 00:10:26;;;;;;;0.30;0.30;;;;;;;18.70;44.10;101794.63;5116347;27;20055;-50
2023/04/08 00:12:52;;;;;;;0.40;0.40;;;;;;;18.70;44.24;101791.03;5117705;28;20492;-46
2023/04/08 00:15:18;;;;;;;0.30;0.30;;;;;;;18.71;44.32;101790.75;5095364;28;20054;-48
2023/04/08 00:17:44;;;;;;;0.20;0.20;;;;;;;18.70;43.96;101789.09;5097716;28;20048;-49
2023/04/08 00:20:10;;;;;;;0.30;0.30;;;;;;;18.70;44.30;101785.50;5097722;28;20192;-50
2023/04/08 00:22:36;;;;;;;0.30;0.30;;;;;;;18.70;44.24;101785.50;5104885;28;20601;-48
2023/04/08 00:25:01;;;;;;;0.20;0.20;;;;;;;18.71;44.31;101792.69;5117210;28;20792;-46
2023/04/08 00:27:27;;;;;;;0.30;0.30;;;;;;;18.69;44.09;101792.91;5117560;28;20051;-46
2023/04/08 00:29:53;;;;;;;0.30;0.30;;;;;;;18.70;44.13;101788.25;5120885;27;20417;-46
2023/04/08 00:32:19;;;;;;;0.30;0.30;;;;;;;18.71;43.99;101798.19;5132612;27;20047;-48
2023/04/08 00:34:44;;;;;;;0.20;0.20;;;;;;;18.69;44.13;101794.81;5117480;28;20143;-49
2023/04/08 00:37:10;;;;;;;0.20;0.20;;;;;;;18.70;44.19;101802.88;5117391;28;20085;-49
2023/04/08 00:39:36;;;;;;;0.20;0.20;;;;;;;18.70;44.15;101796.53;5117518;28;20051;-46
2023/04/08 00:42:02;;;;;;;0.30;0.30;;;;;;;18.70;44.18;101802.06;5117395;28;20058;-49
2023/04/08 00:44:28;;;;;;;0.30;0.30;;;;;;;18.70;44.09;101804.81;5116782;28;20049;-48
2023/04/08 00:46:54;;;;;;;0.30;0.30;;;;;;;18.70;44.10;101796.53;5117205;28;20051;-48
2023/04/08 00:49:19;;;;;;;0.20;0.20;;;;;;;18.70;44.04;101799.31;5117547;28;20544;-46
2023/04/08 00:51:45;;;;;;;0.20;0.20;;;;;;;18.70;44.09;101802.88;5117560;28;20043;-47
2023/04/08 00:54:11;;;;;;;0.30;0.30;;;;;;;18.69;44.15;101803.09;5117054;28;20058;-46
2023/04/08 00:56:36;;;;;;;0.20;0.20;;;;;;;18.69;44.35;101798.44;5117065;28;20766;-46
2023/04/08 00:59:02;;;;;;;0.30;0.30;;;;;;;18.70;43.96;101805.66;5098612;28;20055;-49
2023/04/08 01:01:50;;;;;;;0.30;0.30;;;;;;;18.69;44.24;101803.97;5098594;28;20191;-46
2023/04/08 01:04:43;;;;;;;0.20;0.20;;;;;;;18.69;44.01;101798.44;5081107;28;20132;-47
2023/04/08 01:07:16;;;;;;;0.30;0.30;;;;;;;18.70;44.07;101804.81;5095153;28;20156;-49
2023/04/08 01:09:49;;;;;;;0.22;0.22;;;;;;;18.70;44.08;101804.81;5096690;28;20071;-46
2023/04/08 01:12:21;;;;;;;0.25;0.25;;;;;;;18.70;44.36;101807.56;5101349;28;20050;-46
2023/04/08 01:14:47;;;;;;;0.20;0.20;;;;;;;18.69;43.96;101805.84;5094980;28;20209;-47
2023/04/08 01:17:14;;;;;;;0.25;0.25;;;;;;;18.69;44.14;101801.19;5096372;28;20082;-46
2023/04/08 01:19:43;;;;;;;0.30;0.30;;;;;;;18.70;44.23;101807.56;5096235;28;20411;-47
2023/04/08 01:22:31;;;;;;;0.20;0.20;;;;;;;18.70;43.97;101807.56;5100344;28;20072;-46
2023/04/08 01:25:04;;;;;;;0.20;0.20;;;;;;;18.69;44.09;101809.47;5116712;28;20043;-46
2023/04/08 01:27:30;;;;;;;0.20;0.20;;;;;;;18.69;44.21;101806.72;5116383;28;20043;-47
2023/04/08 01:29:57;;;;;;;0.20;0.20;;;;;;;18.70;44.08;101807.56;5116422;28;20058;-47
2023/04/08 01:32:24;;;;;;;0.20;0.20;;;;;;;18.69;44.00;101811.38;5115354;27;20048;-47
2023/04/08 01:34:50;;;;;;;0.20;0.20;;;;;;;18.69;44.05;101814.13;5116560;28;20042;-46
2023/04/08 01:37:16;;;;;;;0.30;0.30;;;;;;;18.70;44.09;101813.09;5116155;28;20411;-46
2023/04/08 01:39:42;;;;;;;0.30;0.30;;;;;;;18.70;43.86;101821.38;5116430;28;20051;-48
2023/04/08 01:42:09;;;;;;;0.30;0.30;;;;;;;18.69;44.25;101808.63;5116433;28;20054;-47
2023/04/08 01:44:34;;;;;;;0.30;0.30;;;;;;;18.70;44.26;101813.09;5116308;28;20047;-51
2023/04/08 01:47:01;;;;;;;0.20;0.20;;;;;;;18.69;44.06;101819.66;5115846;28;20521;-49
2023/04/08 01:49:28;;;;;;;0.20;0.20;;;;;;;18.70;43.98;101815.84;5116121;28;20541;-46
2023/04/08 01:51:55;;;;;;;0.30;0.30;;;;;;;18.70;43.95;101815.84;5116184;28;20073;-47
2023/04/08 01:54:21;;;;;;;0.20;0.20;;;;;;;18.69;44.16;101816.88;5116055;28;20062;-46
2023/04/08 01:56:48;;;;;;;0.30;0.30;;;;;;;18.69;44.21;101815.00;5115793;28;20047;-47
2023/04/08 01:59:15;;;;;;;0.30;0.30;;;;;;;18.68;43.92;101816.06;5116093;28;20452;-48
2023/04/08 02:01:43;;;;;;;0.30;0.30;;;;;;;18.69;44.17;101816.88;5083433;28;20112;-46
2023/04/08 02:04:09;;;;;;;0.30;0.30;;;;;;;18.69;43.90;101822.41;5101610;28;20043;-49
2023/04/08 02:06:35;;;;;;;0.20;0.20;;;;;;;18.69;44.10;101825.16;5097464;28;20104;-46
2023/04/08 02:09:00;;;;;;;0.30;0.30;;;;;;;18.68;44.07;101818.81;5115624;28;20077;-48
2023/04/08 02:11:28;;;;;;;0.30;0.30;;;;;;;18.69;44.22;101825.16;5115916;28;20146;-48
2023/04/08 02:13:54;;;;;;;0.30;0.30;;;;;;;18.69;43.92;101819.66;5115755;28;20043;-48
2023/04/08 02:16:23;;;;;;;0.30;0.30;;;;;;;18.69;44.17;101814.13;5097078;28;20054;-46
2023/04/08 02:18:55;;;;;;;0.30;0.30;;;;;;;18.69;44.13;101822.41;5096773;28;20407;-45
2023/04/08 02:21:26;;;;;;;0.30;0.30;;;;;;;18.68;44.37;101816.06;5097258;28;20427;-46
2023/04/08 02:23:53;;;;;;;0.30;0.30;;;;;;;18.69;43.97;101820.50;5115992;28;20062;-47
2023/04/08 02:26:20;;;;;;;0.20;0.20;;;;;;;18.70;44.08;101818.63;5116241;28;20434;-47
2023/04/08 02:28:47;;;;;;;0.30;0.30;;;;;;;18.69;43.96;101820.50;5115721;28;20050;-45
2023/04/08 02:31:13;;;;;;;0.20;0.20;;;;;;;18.69;44.11;101820.50;5097432;27;20047;-46
2023/04/08 02:33:40;;;;;;;0.30;0.30;;;;;;;18.69;44.04;101819.66;5114379;27;20074;-46
2023/04/08 02:36:06;;;;;;;0.20;0.20;;;;;;;18.69;43.76;101819.66;5097529;28;20082;-45
2023/04/08 02:38:32;;;;;;;0.28;0.28;;;;;;;18.68;43.98;101829.03;5115537;28;20043;-45
2023/04/08 02:40:58;;;;;;;0.30;0.30;;;;;;;18.70;44.27;101821.38;5115684;28;20611;-46
2023/04/08 02:43:30;;;;;;;0.30;0.30;;;;;;;18.69;44.19;101828.78;5115851;28;20099;-48
2023/04/08 02:46:01;;;;;;;0.20;0.20;;;;;;;18.69;44.35;101817.75;5116334;28;20062;-45
2023/04/08 02:48:27;;;;;;;0.20;0.20;;;;;;;18.69;44.21;101826.03;5101359;28;20480;-47
2023/04/08 02:50:53;;;;;;;0.25;0.25;;;;;;;18.68;44.16;101821.56;5097073;28;20051;-47
2023/04/08 02:53:20;;;;;;;0.20;0.20;;;;;;;18.69;44.13;101828.78;5115355;28;20530;-47
2023/04/08 02:55:46;;;;;;;0.20;0.20;;;;;;;18.68;44.06;101821.56;5115977;28;20079;-46
2023/04/08 02:58:12;;;;;;;0.20;0.20;;;;;;;18.68;44.10;101820.75;5115321;28;20087;-47
2023/04/08 03:00:38;;;;;;;0.20;0.20;;;;;;;18.67;44.12;101825.44;5120153;27;20042;-46
2023/04/08 03:03:05;;;;;;;0.20;0.20;;;;;;;18.68;44.19;101827.09;5124267;27;20196;-46
2023/04/08 03:05:31;;;;;;;0.20;0.20;;;;;;;18.69;43.78;101825.16;5115662;28;20051;-49
2023/04/08 03:07:57;;;;;;;0.20;0.20;;;;;;;18.69;44.14;101830.69;5080163;28;20092;-46
2023/04/08 03:10:23;;;;;;;0.20;0.20;;;;;;;18.68;44.19;101834.53;5115243;28;20043;-46
2023/04/08 03:12:48;;;;;;;0.20;0.20;;;;;;;18.69;43.87;101827.94;5115458;28;20054;-48
2023/04/08 03:15:14;;;;;;;0.20;0.20;;;;;;;18.69;44.07;101836.19;5115280;28;20458;-45
2023/04/08 03:17:40;;;;;;;0.20;0.20;;;;;;;18.68;44.07;101835.38;5115574;28;20051;-48
2023/04/08 03:20:06;;;;;;;0.20;0.20;;;;;;;18.69;44.15;101830.69;5096901;28;20057;-46
2023/04/08 03:22:32;;;;;;;0.20;0.20;;;;;;;18.67;44.13;101830.94;5114974;28;20043;-45
2023/04/08 03:24:58;;;;;;;0.30;0.30;;;;;;;18.68;44.00;101834.53;5115406;28;20086;-48
2023/04/08 03:27:24;;;;;;;0.30;0.30;;;;;;;18.68;44.08;101838.13;5115381;28;20043;-45
2023/04/08 03:29:49;;;;;;;0.30;0.30;;;;;;;18.68;43.88;101835.38;5096638;28;20088;-48
2023/04/08 03:32:15;;;;;;;0.20;0.20;;;;;;;18.68;43.98;101842.81;5114058;27;20047;-48
2023/04/08 03:34:41;;;;;;;0.20;0.20;;;;;;;18.67;44.00;101830.94;5114516;28;20589;-46
2023/04/08 03:37:07;;;;;;;0.20;0.20;;;;;;;18.68;43.93;101831.78;5115188;28;20043;-45
2023/04/08 03:39:32;;;;;;;0.20;0.20;;;;;;;18.68;44.23;101837.31;5096654;28;20506;-49
2023/04/08 03:41:59;;;;;;;0.20;0.20;;;;;;;18.68;43.94;101843.66;5114505;28;20047;-48
2023/04/08 03:44:26;;;;;;;0.30;0.30;;;;;;;18.67;43.95;101839.22;5093107;28;20492;-46
2023/04/08 03:46:51;;;;;;;0.20;0.20;;;;;;;18.67;44.02;101836.47;5096474;28;20433;-46
2023/04/08 03:49:17;;;;;;;0.20;0.20;;;;;;;18.68;43.93;101846.41;5105897;28;20378;-48
2023/04/08 03:51:43;;;;;;;0.20;0.20;;;;;;;18.68;44.11;101840.06;5117785;27;20066;-47
2023/04/08 03:54:08;;;;;;;0.25;0.25;;;;;;;18.67;44.11;101850.25;5117542;28;20057;-46
2023/04/08 03:56:34;;;;;;;0.30;0.30;;;;;;;18.68;43.99;101848.34;5117873;28;20039;-47
2023/04/08 03:58:59;;;;;;;0.30;0.30;;;;;;;18.67;44.23;101853.03;5117886;28;20051;-47
2023/04/08 04:01:25;;;;;;;0.28;0.28;;;;;;;18.68;44.15;101846.41;5117346;28;20039;-47
2023/04/08 04:03:51;;;;;;;0.20;0.20;;;;;;;18.68;44.26;101845.56;5117137;28;20710;-48
2023/04/08 04:06:17;;;;;;;0.20;0.20;;;;;;;18.68;44.10;101849.16;5117866;28;20046;-46
2023/04/08 04:08:43;;;;;;;0.30;0.30;;;;;;;18.68;44.20;101845.56;5117835;28;20088;-49
2023/04/08 04:11:08;;;;;;;0.30;0.30;;;;;;;18.67;44.11;101847.50;5117735;28;20043;-50
2023/04/08 04:13:34;;;;;;;0.20;0.20;;;;;;;18.68;44.21;101842.81;5117700;28;20418;-46
2023/04/08 04:15:59;;;;;;;0.20;0.20;;;;;;;18.67;44.23;101842.00;5117435;28;20088;-47
2023/04/08 04:18:25;;;;;;;0.20;0.20;;;;;;;18.67;44.08;101836.47;5118012;28;20043;-46
2023/04/08 04:20:51;;;;;;;0.20;0.20;;;;;;;18.67;43.94;101850.25;5117825;28;20107;-46
2023/04/08 04:23:17;;;;;;;0.20;0.20;;;;;;;18.68;44.14;101857.44;5116907;28;20043;-45
2023/04/08 04:25:43;;;;;;;0.20;0.20;;;;;;;18.68;44.16;101853.84;5117569;28;20040;-45
2023/04/08 04:28:09;;;;;;;0.20;0.20;;;;;;;18.67;44.21;101861.31;5117203;28;20047;-46
2023/04/08 04:30:37;;;;;;;0.30;0.30;;;;;;;18.68;44.05;101865.72;5096094;27;20483;-49
2023/04/08 04:33:03;;;;;;;0.20;0.20;;;;;;;18.68;43.99;101864.91;5103005;28;20458;-46
2023/04/08 04:35:29;;;;;;;0.20;0.20;;;;;;;18.68;44.00;101875.94;5117247;27;20181;-46
2023/04/08 04:37:55;;;;;;;0.30;0.30;;;;;;;18.67;44.13;101875.09;5117149;27;20452;-45
2023/04/08 04:40:21;;;;;;;0.20;0.20;;;;;;;18.68;43.90;101873.16;5117848;27;20506;-46
2023/04/08 04:42:46;;;;;;;0.20;0.20;;;;;;;18.67;44.09;101880.63;5117178;28;20051;-46
2023/04/08 04:45:12;;;;;;;0.30;0.30;;;;;;;18.67;44.21;101882.53;5117438;28;20214;-46
2023/04/08 04:47:38;;;;;;;0.20;0.20;;;;;;;18.67;44.19;101880.63;5117308;28;20043;-48
2023/04/08 04:50:04;;;;;;;0.20;0.20;;;;;;;18.67;44.08;101877.84;5099244;28;20133;-46
2023/04/08 04:52:30;;;;;;;0.20;0.20;;;;;;;18.67;43.97;101879.78;5117025;28;20435;-46
2023/04/08 04:54:57;;;;;;;0.20;0.20;;;;;;;18.67;44.41;101875.09;5117426;28;20051;-46
2023/04/08 04:57:22;;;;;;;0.20;0.20;;;;;;;18.67;44.12;101883.38;5098365;28;20472;-49
2023/04/08 04:59:48;;;;;;;0.20;0.20;;;;;;;18.66;44.05;101876.19;5099047;28;20601;-48
2023/04/08 05:02:14;;;;;;;0.20;0.20;;;;;;;18.67;44.28;101886.13;5117175;28;20098;-47
2023/04/08 05:04:39;;;;;;;0.20;0.20;;;;;;;18.67;44.04;101888.91;5116580;28;20078;-48
2023/04/08 05:07:05;;;;;;;0.20;0.20;;;;;;;18.66;44.20;101884.47;5117121;28;20043;-46
2023/04/08 05:09:31;;;;;;;0.20;0.20;;;;;;;18.67;44.12;101891.66;5116839;28;20565;-46
2023/04/08 05:11:56;;;;;;;0.20;0.20;;;;;;;18.68;44.26;101900.75;5117200;28;20057;-46
2023/04/08 05:14:22;;;;;;;0.20;0.20;;;;;;;18.66;44.11;101898.25;5116718;28;20054;-48
2023/04/08 05:16:48;;;;;;;0.20;0.20;;;;;;;18.67;44.26;101897.16;5117050;28;20625;-45
2023/04/08 05:19:13;;;;;;;0.20;0.20;;;;;;;18.68;44.13;101895.25;5116920;28;20047;-47
2023/04/08 05:21:39;;;;;;;0.20;0.20;;;;;;;18.67;44.09;101897.16;5117453;28;20043;-46
2023/04/08 05:24:05;;;;;;;0.20;0.20;;;;;;;18.66;44.15;101892.75;5116816;28;20046;-48
2023/04/08 05:26:31;;;;;;;0.20;0.20;;;;;;;18.67;44.01;101897.16;5116957;28;20051;-47
2023/04/08 05:28:57;;;;;;;0.20;0.20;;;;;;;18.67;44.06;101896.34;5116609;28;20479;-49
2023/04/08 05:31:23;;;;;;;0.30;0.30;;;;;;;18.66;44.08;101895.50;5107946;27;20043;-46
2023/04/08 05:33:49;;;;;;;0.20;0.20;;;;;;;18.67;44.03;101905.44;5113717;28;20386;-48
2023/04/08 05:36:14;;;;;;;0.20;0.20;;;;;;;18.66;44.12;101906.53;5116161;28;20039;-47
2023/04/08 05:38:43;;;;;;;0.20;0.20;;;;;;;18.67;43.98;101908.22;5116092;27;20076;-48
2023/04/08 05:41:09;;;;;;;0.20;0.20;;;;;;;18.66;44.17;101903.78;5116554;28;20435;-46
2023/04/08 05:43:35;;;;;;;0.20;0.20;;;;;;;18.65;44.23;101907.63;5097803;28;20051;-46
2023/04/08 05:46:09;;;;;;;0.20;0.20;;;;;;;18.68;43.98;101911.81;5098086;28;20058;-46
2023/04/08 05:48:35;;;;;;;0.20;0.20;;;;;;;18.66;44.29;101914.81;5116158;28;20086;-48
2023/04/08 05:51:01;;;;;;;0.22;0.22;;;;;;;18.66;44.05;101923.09;5097931;28;20078;-46
2023/04/08 05:53:26;;;;;;;0.30;0.30;;;;;;;18.66;43.99;101923.09;5102999;28;20051;-48
2023/04/08 05:55:52;;;;;;;0.20;0.20;;;;;;;18.66;44.05;101925.84;5116307;28;20526;-46
2023/04/08 05:58:18;;;;;;;0.20;0.20;;;;;;;18.65;44.06;101932.47;5116098;28;20083;-47
2023/04/08 06:00:43;;;;;;;0.20;0.20;;;;;;;18.67;44.26;101940.50;5116299;28;20064;-46
2023/04/08 06:03:09;;;;;;;0.20;0.20;;;;;;;18.66;44.54;101938.81;5116626;28;20530;-46
2023/04/08 06:05:35;;;;;;;0.20;0.20;;;;;;;18.66;44.21;101939.66;5116281;28;20051;-47
2023/04/08 06:08:01;;;;;;;0.20;0.20;;;;;;;18.66;44.43;101945.16;5115356;27;20414;-48
2023/04/08 06:10:26;;;;;;;0.20;0.20;;;;;;;18.66;44.01;101944.34;5116238;28;20039;-47
2023/04/08 06:12:52;;;;;;;0.30;0.30;;;;;;;18.67;44.09;101946.84;5116521;28;20043;-45
2023/04/08 06:15:18;;;;;;;0.30;0.30;;;;;;;18.66;44.00;101945.16;5116551;28;20480;-46
2023/04/08 06:17:43;;;;;;;0.30;0.30;;;;;;;18.67;44.26;101946.00;5116163;28;20067;-45
2023/04/08 06:20:09;;;;;;;0.30;0.30;;;;;;;18.67;44.12;101943.25;5116281;28;20039;-46
2023/04/08 06:22:35;;;;;;;0.20;0.20;;;;;;;18.66;44.30;101947.09;5116408;28;20043;-47
2023/04/08 06:25:01;;;;;;;0.20;0.20;;;;;;;18.66;44.35;101949.84;5116361;28;20051;-47
2023/04/08 06:27:27;;;;;;;0.20;0.20;;;;;;;18.66;44.28;101956.22;5116061;28;20393;-45
2023/04/08 06:29:54;;;;;;;0.30;0.30;;;;;;;18.66;44.18;101956.22;5116111;28;20050;-46
2023/04/08 06:32:20;;;;;;;0.20;0.20;;;;;;;18.67;44.24;101965.31;5104083;27;20046;-46
2023/04/08 06:34:46;;;;;;;0.30;0.30;;;;;;;18.67;44.27;101968.91;5116561;28;20054;-47
2023/04/08 06:37:12;;;;;;;0.30;0.30;;;;;;;18.66;44.24;101967.25;5115640;28;20092;-46
2023/04/08 06:39:38;;;;;;;0.20;0.20;;;;;;;18.66;44.27;101971.94;5115160;28;20051;-47
2023/04/08 06:42:03;;;;;;;0.20;0.20;;;;;;;18.66;44.09;101969.16;5114872;28;20050;-46
2023/04/08 06:44:29;;;;;;;0.30;0.30;;;;;;;18.67;44.04;101973.59;5115252;28;20376;-46
2023/04/08 06:46:55;;;;;;;0.30;0.30;;;;;;;18.66;44.04;101970.00;5115561;28;20047;-46
2023/04/08 06:49:21;;;;;;;0.30;0.30;;;;;;;18.66;44.26;101975.53;5115339;28;20051;-46
2023/04/08 06:51:47;;;;;;;0.30;0.30;;;;;;;18.66;44.25;101971.94;5115392;28;20380;-46
2023/04/08 06:54:13;;;;;;;0.30;0.30;;;;;;;18.66;44.10;101972.75;5114863;28;20484;-45
2023/04/08 06:56:38;;;;;;;0.20;0.20;;;;;;;18.67;44.30;101979.13;5115782;28;20515;-47
2023/04/08 06:59:04;;;;;;;0.30;0.30;;;;;;;18.66;44.11;101977.44;5114980;27;20039;-46
2023/04/08 07:01:31;;;;;;;0.30;0.30;;;;;;;18.66;44.03;101974.69;5087183;28;20093;-46
2023/04/08 07:03:57;;;;;;;0.30;0.30;;;;;;;18.66;44.09;101978.28;5112896;28;20047;-45
2023/04/08 07:06:23;;;;;;;0.30;0.30;;;;;;;18.66;44.27;101985.72;5097250;28;20058;-46
2023/04/08 07:08:48;;;;;;;0.20;0.20;;;;;;;18.67;44.01;101976.34;5115209;28;20043;-49
2023/04/08 07:11:15;;;;;;;0.30;0.30;;;;;;;18.66;44.17;101985.72;5114997;28;20035;-46
2023/04/08 07:13:40;;;;;;;0.30;0.30;;;;;;;18.66;44.18;101986.56;5114984;28;20071;-46
2023/04/08 07:16:06;;;;;;;0.20;0.20;;;;;;;18.66;44.26;101986.56;5115370;28;20252;-45
2023/04/08 07:18:32;;;;;;;0.30;0.30;;;;;;;18.66;44.26;101994.84;5115699;27;20055;-46
2023/04/08 07:20:59;;;;;;;0.20;0.20;;;;;;;18.66;44.51;101994.00;5118720;28;20053;-46
2023/04/08 07:23:26;;;;;;;0.20;0.20;;;;;;;18.65;44.09;101993.16;5096562;28;20071;-45
2023/04/08 07:25:52;;;;;;;0.20;0.20;;;;;;;18.65;44.10;102001.44;5097010;28;20081;-47
2023/04/08 07:28:19;;;;;;;0.20;0.20;;;;;;;18.67;44.02;101990.97;5098450;28;20089;-45
2023/04/08 07:30:45;;;;;;;0.30;0.30;;;;;;;18.66;44.09;101999.53;5096426;27;20043;-45
2023/04/08 07:33:10;;;;;;;0.30;0.30;;;;;;;18.66;44.03;102005.03;5091405;28;20039;-45
2023/04/08 07:35:36;;;;;;;0.30;0.30;;;;;;;18.66;43.99;102005.88;5118472;28;20050;-46
2023/04/08 07:38:02;;;;;;;0.30;0.30;;;;;;;18.66;44.27;102005.88;5118420;28;20459;-45
2023/04/08 07:40:28;;;;;;;0.30;0.30;;;;;;;18.65;44.37;102012.50;5118269;28;20047;-47
2023/04/08 07:42:54;;;;;;;0.20;0.20;;;;;;;18.65;44.14;102001.44;5117864;28;20046;-46
2023/04/08 07:45:20;;;;;;;0.20;0.20;;;;;;;18.65;44.20;102006.97;5118436;28;20103;-45
2023/04/08 07:47:46;;;;;;;0.20;0.20;;;;;;;18.66;44.20;102014.16;5118803;28;20239;-47
2023/04/08 07:50:12;;;;;;;0.20;0.20;;;;;;;18.65;44.20;102020.75;5118363;28;20287;-47
2023/04/08 07:52:37;;;;;;;0.20;0.20;;;;;;;18.67;44.36;102026.03;5096178;28;20128;-49
2023/04/08 07:55:04;;;;;;;0.22;0.22;;;;;;;18.66;44.11;102027.13;5110429;28;20099;-46
2023/04/08 07:57:31;;;;;;;0.30;0.30;;;;;;;18.66;44.02;102036.22;5117956;28;20483;-46
2023/04/08 07:59:56;;;;;;;0.20;0.20;;;;;;;18.66;44.26;102032.63;5118066;28;20051;-45
2023/04/08 08:02:22;;;;;;;0.20;0.20;;;;;;;18.67;44.07;102032.38;5117787;28;20077;-46
2023/04/08 08:04:48;;;;;;;0.25;0.25;;;;;;;18.66;44.20;102036.22;5117617;28;20488;-48
2023/04/08 08:07:14;;;;;;;0.20;0.20;;;;;;;18.66;44.35;102035.41;5117909;28;20073;-46
2023/04/08 08:09:40;;;;;;;0.30;0.30;;;;;;;18.65;44.22;102036.47;5118231;28;20043;-46
2023/04/08 08:12:05;;;;;;;0.20;0.20;;;;;;;18.66;44.28;102047.25;5117842;28;20342;-46
2023/04/08 08:14:31;;;;;;;0.22;0.22;;;;;;;18.66;44.33;102044.50;5117774;28;20476;-45
2023/04/08 08:16:57;;;;;;;0.20;0.20;;;;;;;18.65;44.21;102042.84;5117879;28;20054;-47
2023/04/08 08:19:23;;;;;;;0.28;0.28;;;;;;;18.65;44.16;102048.34;5118419;28;20196;-46
2023/04/08 08:21:48;;;;;;;0.30;0.30;;;;;;;18.66;44.21;102058.31;5117794;28;20039;-46
2023/04/08 08:24:15;;;;;;;0.30;0.30;;;;;;;18.66;44.17;102055.53;5117384;28;20051;-45
2023/04/08 08:26:41;;;;;;;0.20;0.20;;;;;;;18.67;44.28;102059.13;5099346;28;20093;-48
2023/04/08 08:29:07;;;;;;;0.20;0.20;;;;;;;18.65;44.10;102059.41;5118037;28;20411;-46
2023/04/08 08:31:33;;;;;;;0.43;0.43;;;;;;;18.66;44.43;102066.56;5107040;27;20480;-47
2023/04/08 08:33:59;;;;;;;0.20;0.20;;;;;;;18.66;44.10;102063.81;5115434;28;20100;-46
2023/04/08 08:36:26;;;;;;;0.30;0.30;;;;;;;18.66;44.24;102065.75;5117159;28;20047;-47
2023/04/08 08:38:53;;;;;;;0.20;0.20;;;;;;;18.68;44.32;102071.84;5116853;28;20100;-46
2023/04/08 08:41:21;;;;;;;0.30;0.30;;;;;;;18.65;44.21;102064.91;5117523;28;20180;-47
2023/04/08 08:43:47;;;;;;;0.20;0.20;;;;;;;18.66;44.38;102065.75;5116437;27;20495;-48
2023/04/08 08:46:16;;;;;;;0.20;0.20;;;;;;;18.66;44.35;102063.81;5081994;28;20164;-45
2023/04/08 08:48:42;;;;;;;0.20;0.20;;;;;;;18.66;44.13;102074.03;5081924;28;20047;-47
2023/04/08 08:51:09;;;;;;;0.20;0.20;;;;;;;18.66;44.34;102068.50;5117501;28;20624;-45
2023/04/08 08:53:35;;;;;;;0.20;0.20;;;;;;;18.66;44.24;102068.50;5116832;28;20096;-45
2023/04/08 08:56:01;;;;;;;0.20;0.20;;;;;;;18.66;44.37;102080.38;5081738;28;20043;-46
2023/04/08 08:58:30;;;;;;;0.20;0.20;;;;;;;18.66;44.34;102074.03;5116270;28;20070;-46
2023/04/08 09:00:56;;;;;;;0.20;0.20;;;;;;;18.66;44.25;102083.13;5130205;27;20080;-47
2023/04/08 09:03:24;;;;;;;0.20;0.20;;;;;;;18.66;44.33;102079.53;5124005;27;20055;-49
2023/04/08 09:05:53;;;;;;;0.30;0.30;;;;;;;18.66;44.43;102074.84;5116527;28;20043;-47
2023/04/08 09:08:35;;;;;;;0.20;0.20;;;;;;;18.66;44.27;102074.84;5116647;28;20376;-48
2023/04/08 09:11:18;;;;;;;0.30;0.30;;;;;;;18.66;44.26;102077.63;5082144;28;20096;-46
2023/04/08 09:13:44;;;;;;;0.20;0.20;;;;;;;18.65;44.22;102070.44;5116357;28;20109;-46
2023/04/08 09:16:13;;;;;;;0.30;0.30;;;;;;;18.67;44.41;102086.72;5098501;28;20070;-46
2023/04/08 09:18:42;;;;;;;0.20;0.20;;;;;;;18.66;44.20;102077.63;5098470;28;20051;-48
2023/04/08 09:21:07;;;;;;;0.30;0.30;;;;;;;18.65;44.30;102078.72;5116924;28;20082;-50
2023/04/08 09:23:45;;;;;;;0.20;0.20;;;;;;;18.66;44.43;102082.31;5116524;28;20043;-48
2023/04/08 09:26:13;;;;;;;0.30;0.30;;;;;;;18.65;44.19;102081.47;5098282;28;20067;-46
2023/04/08 09:28:40;;;;;;;0.20;0.20;;;;;;;18.66;44.36;102088.66;5098540;28;20062;-46
2023/04/08 09:31:22;;;;;;;0.30;0.30;;;;;;;18.66;44.24;102087.81;5081512;27;20043;-48
2023/04/08 09:33:49;;;;;;;0.30;0.30;;;;;;;18.66;44.37;102088.66;5098557;28;20141;-45
2023/04/08 09:36:16;;;;;;;0.30;0.30;;;;;;;18.67;44.19;102089.47;5117148;28;20039;-46
2023/04/08 09:38:42;;;;;;;0.20;0.20;;;;;;;18.66;44.42;102094.16;5116972;28;20415;-47
2023/04/08 09:41:13;;;;;;;0.30;0.30;;;;;;;18.66;44.20;102093.34;5116677;28;20082;-47
2023/04/08 09:43:47;;;;;;;0.30;0.30;;;;;;;18.66;44.20;102096.94;5097127;28;20079;-47
2023/04/08 09:46:15;;;;;;;0.22;0.22;;;;;;;18.66;44.40;102098.84;5099155;28;20108;-49
2023/04/08 09:48:54;;;;;;;0.20;0.20;;;;;;;18.66;44.37;102104.38;5116683;28;20644;-46
2023/04/08 09:51:22;;;;;;;0.20;0.20;;;;;;;18.67;44.18;102114.31;5098182;28;20077;-47
2023/04/08 09:53:55;;;;;;;0.30;0.30;;;;;;;18.66;44.52;102115.41;5116827;28;20058;-48
2023/04/08 09:56:21;;;;;;;0.30;0.30;;;;;;;18.66;44.46;102109.88;5098434;28;20054;-47
2023/04/08 09:58:58;;;;;;;0.30;0.30;;;;;;;18.66;44.50;102105.22;5116562;28;20046;-47
2023/04/08 10:01:28;;;;;;;0.30;0.30;;;;;;;18.66;44.21;102107.13;5100465;28;20463;-48
2023/04/08 10:03:56;;;;;;;0.28;0.28;;;;;;;18.67;44.42;102103.28;5098408;27;20567;-46
2023/04/08 10:06:27;;;;;;;0.20;0.20;;;;;;;18.66;44.30;102107.97;5098395;28;20423;-47
2023/04/08 10:08:55;;;;;;;0.22;0.22;;;;;;;18.67;44.40;102106.88;5116504;28;20490;-46
2023/04/08 10:11:20;;;;;;;0.30;0.30;;;;;;;18.66;44.14;102109.88;5097822;28;20813;-48
2023/04/08 10:13:46;;;;;;;0.20;0.20;;;;;;;18.65;44.21;102109.06;5096571;28;20255;-46
2023/04/08 10:16:17;;;;;;;0.30;0.30;;;;;;;18.67;44.45;102104.13;5116096;28;20081;-47
2023/04/08 10:18:44;;;;;;;0.30;0.30;;;;;;;18.65;44.17;102109.06;5097551;28;20043;-46
2023/04/08 10:21:31;;;;;;;0.20;0.20;;;;;;;18.66;44.39;102107.97;5116122;28;20054;-45
2023/04/08 10:23:58;;;;;;;0.30;0.30;;;;;;;18.66;44.47;102105.22;5097855;28;20095;-46
2023/04/08 10:26:33;;;;;;;0.20;0.20;;;;;;;18.65;44.43;102106.31;5098038;28;20043;-46
2023/04/08 10:31:53;;;;;;;0.20;0.20;;;;;;;18.66;44.42;102099.69;5152375;27;20129;-46
2023/04/08 10:34:21;;;;;;;0.20;0.20;;;;;;;18.66;44.41;102105.22;5153520;27;20307;-47
2023/04/08 10:36:47;;;;;;;0.20;0.20;;;;;;;18.67;44.20;102106.03;5153617;27;20123;-48
2023/04/08 10:39:14;;;;;;;0.20;0.20;;;;;;;18.66;44.30;102104.38;5153216;27;20123;-47
2023/04/08 10:41:42;;;;;;;0.22;0.22;;;;;;;18.66;44.33;102101.63;5134658;27;20047;-46
2023/04/08 10:44:25;;;;;;;0.25;0.25;;;;;;;18.68;44.38;102096.66;5147603;27;20455;-49
2023/04/08 10:46:51;;;;;;;0.30;0.30;;;;;;;18.66;44.43;102094.16;5142013;27;20422;-45
2023/04/08 10:49:17;;;;;;;0.30;0.30;;;;;;;18.66;44.30;102101.63;5153447;27;20047;-47
2023/04/08 10:51:43;;;;;;;0.30;0.30;;;;;;;18.66;44.33;102105.22;5151686;27;20074;-47
2023/04/08 10:54:11;;;;;;;0.20;0.20;;;;;;;18.67;44.49;102106.03;5119632;27;20091;-46
2023/04/08 10:56:52;;;;;;;0.20;0.20;;;;;;;18.66;44.53;102099.69;5134313;27;20054;-46
2023/04/08 10:59:33;;;;;;;0.20;0.20;;;;;;;18.66;44.29;102096.09;5154682;27;20078;-46
2023/04/08 11:02:00;;;;;;;0.30;0.30;;;;;;;18.65;44.18;102103.53;5161441;27;20265;-46
2023/04/08 11:04:26;;;;;;;0.30;0.30;;;;;;;18.65;44.23;102099.91;5134076;27;20042;-44
2023/04/08 11:06:52;;;;;;;0.30;0.30;;;;;;;18.66;44.56;102096.94;5153201;27;20094;-45
2023/04/08 11:09:18;;;;;;;0.20;0.20;;;;;;;18.65;44.51;102092.50;5152977;27;20365;-46
2023/04/08 11:11:45;;;;;;;0.20;0.20;;;;;;;18.66;44.51;102102.44;5152518;27;20054;-44
2023/04/08 11:14:11;;;;;;;0.20;0.20;;;;;;;18.66;44.30;102090.56;5152111;27;20046;-46
2023/04/08 11:16:37;;;;;;;0.20;0.20;;;;;;;18.66;44.51;102093.34;5152995;27;20099;-45
2023/04/08 11:19:04;;;;;;;0.20;0.20;;;;;;;18.65;44.37;102084.22;5152314;27;20059;-44
2023/04/08 11:21:32;;;;;;;0.20;0.20;;;;;;;18.66;44.27;102085.06;5133574;27;20066;-44
2023/04/08 11:23:57;;;;;;;0.20;0.20;;;;;;;18.67;44.28;102078.44;5133794;27;20369;-45
2023/04/08 11:26:24;;;;;;;0.20;0.20;;;;;;;18.66;44.30;102074.03;5152488;27;20038;-46